Aviation Digital Data Service (ADDS)

Output produced by METARs form (0304 UTC 19 February 2019)
found at http://www.aviationweather.gov/metar/data/
 
METAR text: RJCC 190230Z 14009KT 9999 FEW025 BKN140 BKN/// 03/M04 Q1022 RMK 1CU025 5AC140 A3018
Conditions at: RJCC (CHITOSE (JASDF/C, JP) observed 0230 UTC 19 February 2019
Temperature: 3.0°C (37°F)
Dewpoint: -4.0°C (25°F) [RH = 60%]
Pressure (altimeter): 30.18 inches Hg (1022.0 mb)
Winds: from the SE (140 degrees) at 10 MPH (9 knots; 4.6 m/s)
Visibility: 6 or more miles (10+ km)
Ceiling: 14000 feet AGL
Clouds: few clouds at 2500 feet AGL
broken clouds at 14000 feet AGL
Weather: no significant weather observed at this time

METAR text: RJCC 190200Z 14007KT 9999 FEW025 BKN140 02/M05 Q1022 RMK 1CU025 7AC140 A3020
Conditions at: RJCC (CHITOSE (JASDF/C, JP) observed 0200 UTC 19 February 2019
Temperature: 2.0°C (36°F)
Dewpoint: -5.0°C (23°F) [RH = 60%]
Pressure (altimeter): 30.18 inches Hg (1022.0 mb)
Winds: from the SE (140 degrees) at 8 MPH (7 knots; 3.6 m/s)
Visibility: 6 or more miles (10+ km)
Ceiling: 14000 feet AGL
Clouds: few clouds at 2500 feet AGL
broken clouds at 14000 feet AGL
Weather: no significant weather observed at this time

METAR text: RJCC 190130Z 16010KT 9999 FEW025 BKN150 01/M06 Q1023 RMK 1CU025 7AC150 A3022
Conditions at: RJCC (CHITOSE (JASDF/C, JP) observed 0130 UTC 19 February 2019
Temperature: 1.0°C (34°F)
Dewpoint: -6.0°C (21°F) [RH = 59%]
Pressure (altimeter): 30.21 inches Hg (1023.0 mb)
Winds: from the SSE (160 degrees) at 12 MPH (10 knots; 5.1 m/s)
Visibility: 6 or more miles (10+ km)
Ceiling: 15000 feet AGL
Clouds: few clouds at 2500 feet AGL
broken clouds at 15000 feet AGL
Weather: no significant weather observed at this time

METAR text: RJCC 190100Z 16010KT 9999 FEW025 BKN140 01/M06 Q1023 RMK 1CU025 7AC140 A3022
Conditions at: RJCC (CHITOSE (JASDF/C, JP) observed 0100 UTC 19 February 2019
Temperature: 1.0°C (34°F)
Dewpoint: -6.0°C (21°F) [RH = 59%]
Pressure (altimeter): 30.21 inches Hg (1023.0 mb)
Winds: from the SSE (160 degrees) at 12 MPH (10 knots; 5.1 m/s)
Visibility: 6 or more miles (10+ km)
Ceiling: 14000 feet AGL
Clouds: few clouds at 2500 feet AGL
broken clouds at 14000 feet AGL
Weather: no significant weather observed at this time

METAR text: RJCC 190030Z 16010KT 9999 FEW025 BKN150 BKN/// 00/M07 Q1023
Conditions at: RJCC (CHITOSE (JASDF/C, JP) observed 0030 UTC 19 February 2019
Temperature: 0.0°C (32°F)
Dewpoint: -7.0°C (19°F) [RH = 59%]
Pressure (altimeter): 30.21 inches Hg (1023.0 mb)
Winds: from the SSE (160 degrees) at 12 MPH (10 knots; 5.1 m/s)
Visibility: 6 or more miles (10+ km)
Ceiling: 15000 feet AGL
Clouds: few clouds at 2500 feet AGL
broken clouds at 15000 feet AGL
Weather: no significant weather observed at this time

METAR text: RJCC 190000Z 15008KT 9999 FEW025 SCT180 BKN/// M01/M07 Q1023
Conditions at: RJCC (CHITOSE (JASDF/C, JP) observed 0000 UTC 19 February 2019
Temperature: -1.0°C (30°F)
Dewpoint: -7.0°C (19°F) [RH = 64%]
Pressure (altimeter): 30.21 inches Hg (1023.0 mb)
Winds: from the SSE (150 degrees) at 9 MPH (8 knots; 4.1 m/s)
Visibility: 6 or more miles (10+ km)
Ceiling: at least 12,000 feet AGL
Clouds: few clouds at 2500 feet AGL
scattered clouds at 18000 feet AGL
Weather: no significant weather observed at this time

METAR text: RJCC 182330Z 14009KT 9999 FEW025 BKN180 BKN/// M03/M09 Q1023
Conditions at: RJCC (CHITOSE (JASDF/C, JP) observed 2330 UTC 18 February 2019
Temperature: -3.0°C (27°F)
Dewpoint: -9.0°C (16°F) [RH = 63%]
Pressure (altimeter): 30.21 inches Hg (1023.0 mb)
Winds: from the SE (140 degrees) at 10 MPH (9 knots; 4.6 m/s)
Visibility: 6 or more miles (10+ km)
Ceiling: 18000 feet AGL
Clouds: few clouds at 2500 feet AGL
broken clouds at 18000 feet AGL
Weather: no significant weather observed at this time

METAR text: RJCC 182300Z 16009KT 9999 FEW020 SCT180 BKN/// M03/M09 Q1023
Conditions at: RJCC (CHITOSE (JASDF/C, JP) observed 2300 UTC 18 February 2019
Temperature: -3.0°C (27°F)
Dewpoint: -9.0°C (16°F) [RH = 63%]
Pressure (altimeter): 30.21 inches Hg (1023.0 mb)
Winds: from the SSE (160 degrees) at 10 MPH (9 knots; 4.6 m/s)
Visibility: 6 or more miles (10+ km)
Ceiling: at least 12,000 feet AGL
Clouds: few clouds at 2000 feet AGL
scattered clouds at 18000 feet AGL
Weather: no significant weather observed at this time

METAR text: RJCC 182230Z 17011KT 9999 FEW020 BKN/// M05/M10 Q1023
Conditions at: RJCC (CHITOSE (JASDF/C, JP) observed 2230 UTC 18 February 2019
Temperature: -5.0°C (23°F)
Dewpoint: -10.0°C (14°F) [RH = 68%]
Pressure (altimeter): 30.21 inches Hg (1023.0 mb)
Winds: from the S (170 degrees) at 13 MPH (11 knots; 5.7 m/s)
Visibility: 6 or more miles (10+ km)
Ceiling: at least 12,000 feet AGL
Clouds: few clouds at 2000 feet AGL
Weather: no significant weather observed at this time

METAR text: RJCC 182200Z 18012KT 9999 FEW030 BKN/// M04/M10 Q1023
Conditions at: RJCC (CHITOSE (JASDF/C, JP) observed 2200 UTC 18 February 2019
Temperature: -4.0°C (25°F)
Dewpoint: -10.0°C (14°F) [RH = 63%]
Pressure (altimeter): 30.21 inches Hg (1023.0 mb)
Winds: from the S (180 degrees) at 14 MPH (12 knots; 6.2 m/s)
Visibility: 6 or more miles (10+ km)
Ceiling: at least 12,000 feet AGL
Clouds: few clouds at 3000 feet AGL
Weather: no significant weather observed at this time

METAR text: RJCC 182130Z 18007KT 9999 FEW030 BKN/// M06/M10 Q1023
Conditions at: RJCC (CHITOSE (JASDF/C, JP) observed 2130 UTC 18 February 2019
Temperature: -6.0°C (21°F)
Dewpoint: -10.0°C (14°F) [RH = 73%]
Pressure (altimeter): 30.21 inches Hg (1023.0 mb)
Winds: from the S (180 degrees) at 8 MPH (7 knots; 3.6 m/s)
Visibility: 6 or more miles (10+ km)
Ceiling: at least 12,000 feet AGL
Clouds: few clouds at 3000 feet AGL
Weather: no significant weather observed at this time

METAR text: RJCC 182100Z 18006KT 9999 FEW030 BKN/// M06/M11 Q1023
Conditions at: RJCC (CHITOSE (JASDF/C, JP) observed 2100 UTC 18 February 2019
Temperature: -6.0°C (21°F)
Dewpoint: -11.0°C (12°F) [RH = 68%]
Pressure (altimeter): 30.21 inches Hg (1023.0 mb)
Winds: from the S (180 degrees) at 7 MPH (6 knots; 3.1 m/s)
Visibility: 6 or more miles (10+ km)
Ceiling: at least 12,000 feet AGL
Clouds: few clouds at 3000 feet AGL
Weather: no significant weather observed at this time

METAR text: RJCC 182030Z 17007KT 9999 FEW030 BKN/// M08/M12 Q1023
Conditions at: RJCC (CHITOSE (JASDF/C, JP) observed 2030 UTC 18 February 2019
Temperature: -8.0°C (18°F)
Dewpoint: -12.0°C (10°F) [RH = 73%]
Pressure (altimeter): 30.21 inches Hg (1023.0 mb)
Winds: from the S (170 degrees) at 8 MPH (7 knots; 3.6 m/s)
Visibility: 6 or more miles (10+ km)
Ceiling: at least 12,000 feet AGL
Clouds: few clouds at 3000 feet AGL
Weather: no significant weather observed at this time

METAR text: RJCC 182000Z 17008KT 9999 FEW030 BKN/// M08/M12 Q1023 RMK 1CU030 A3023
Conditions at: RJCC (CHITOSE (JASDF/C, JP) observed 2000 UTC 18 February 2019
Temperature: -8.0°C (18°F)
Dewpoint: -12.0°C (10°F) [RH = 73%]
Pressure (altimeter): 30.21 inches Hg (1023.0 mb)
Winds: from the S (170 degrees) at 9 MPH (8 knots; 4.1 m/s)
Visibility: 6 or more miles (10+ km)
Ceiling: at least 12,000 feet AGL
Clouds: few clouds at 3000 feet AGL
Weather: no significant weather observed at this time

METAR text: RJCC 181930Z 17007KT 9999 FEW030 BKN/// M07/M11 Q1023 RMK 1CU030 A3023
Conditions at: RJCC (CHITOSE (JASDF/C, JP) observed 1930 UTC 18 February 2019
Temperature: -7.0°C (19°F)
Dewpoint: -11.0°C (12°F) [RH = 73%]
Pressure (altimeter): 30.21 inches Hg (1023.0 mb)
Winds: from the S (170 degrees) at 8 MPH (7 knots; 3.6 m/s)
Visibility: 6 or more miles (10+ km)
Ceiling: at least 12,000 feet AGL
Clouds: few clouds at 3000 feet AGL
Weather: no significant weather observed at this time

METAR text: RJCC 181900Z 17008KT 9999 FEW030 SCT/// M08/M11 Q1023
Conditions at: RJCC (CHITOSE (JASDF/C, JP) observed 1900 UTC 18 February 2019
Temperature: -8.0°C (18°F)
Dewpoint: -11.0°C (12°F) [RH = 79%]
Pressure (altimeter): 30.21 inches Hg (1023.0 mb)
Winds: from the S (170 degrees) at 9 MPH (8 knots; 4.1 m/s)
Visibility: 6 or more miles (10+ km)
Ceiling: at least 12,000 feet AGL
Clouds: few clouds at 3000 feet AGL
Weather: no significant weather observed at this time

METAR text: RJCC 181830Z 16007KT 9999 FEW030 SCT/// M07/M11 Q1023
Conditions at: RJCC (CHITOSE (JASDF/C, JP) observed 1830 UTC 18 February 2019
Temperature: -7.0°C (19°F)
Dewpoint: -11.0°C (12°F) [RH = 73%]
Pressure (altimeter): 30.21 inches Hg (1023.0 mb)
Winds: from the SSE (160 degrees) at 8 MPH (7 knots; 3.6 m/s)
Visibility: 6 or more miles (10+ km)
Ceiling: at least 12,000 feet AGL
Clouds: few clouds at 3000 feet AGL
Weather: no significant weather observed at this time

METAR text: RJCC 181800Z 15003KT 9999 FEW030 SCT/// M07/M11 Q1023
Conditions at: RJCC (CHITOSE (JASDF/C, JP) observed 1800 UTC 18 February 2019
Temperature: -7.0°C (19°F)
Dewpoint: -11.0°C (12°F) [RH = 73%]
Pressure (altimeter): 30.21 inches Hg (1023.0 mb)
Winds: from the SSE (150 degrees) at 3 MPH (3 knots; 1.5 m/s)
Visibility: 6 or more miles (10+ km)
Ceiling: at least 12,000 feet AGL
Clouds: few clouds at 3000 feet AGL
Weather: no significant weather observed at this time

METAR text: RJCC 181730Z 15005KT 9999 FEW030 M09/M11 Q1023 RMK 1CU030 A3023
Conditions at: RJCC (CHITOSE (JASDF/C, JP) observed 1730 UTC 18 February 2019
Temperature: -9.0°C (16°F)
Dewpoint: -11.0°C (12°F) [RH = 85%]
Pressure (altimeter): 30.21 inches Hg (1023.0 mb)
Winds: from the SSE (150 degrees) at 6 MPH (5 knots; 2.6 m/s)
Visibility: 6 or more miles (10+ km)
Ceiling: at least 12,000 feet AGL
Clouds: few clouds at 3000 feet AGL
Weather: no significant weather observed at this time

METAR text: RJCC 181700Z 19005KT 9999 FEW030 M11/M13 Q1024 RMK 1CU030 A3024
Conditions at: RJCC (CHITOSE (JASDF/C, JP) observed 1700 UTC 18 February 2019
Temperature: -11.0°C (12°F)
Dewpoint: -13.0°C ( 9°F) [RH = 85%]
Pressure (altimeter): 30.24 inches Hg (1024.0 mb)
Winds: from the S (190 degrees) at 6 MPH (5 knots; 2.6 m/s)
Visibility: 6 or more miles (10+ km)
Ceiling: at least 12,000 feet AGL
Clouds: few clouds at 3000 feet AGL
Weather: no significant weather observed at this time

METAR text: RJCC 181630Z 17004KT 9999 FEW030 M10/M12 Q1024 RMK 1CU030 A3025
Conditions at: RJCC (CHITOSE (JASDF/C, JP) observed 1630 UTC 18 February 2019
Temperature: -10.0°C (14°F)
Dewpoint: -12.0°C (10°F) [RH = 85%]
Pressure (altimeter): 30.24 inches Hg (1024.0 mb)
Winds: from the S (170 degrees) at 5 MPH (4 knots; 2.1 m/s)
Visibility: 6 or more miles (10+ km)
Ceiling: at least 12,000 feet AGL
Clouds: few clouds at 3000 feet AGL
Weather: no significant weather observed at this time

METAR text: RJCC 181600Z 18004KT 9999 FEW030 M11/M13 Q1024 RMK 1CU030 A3024
Conditions at: RJCC (CHITOSE (JASDF/C, JP) observed 1600 UTC 18 February 2019
Temperature: -11.0°C (12°F)
Dewpoint: -13.0°C ( 9°F) [RH = 85%]
Pressure (altimeter): 30.24 inches Hg (1024.0 mb)
Winds: from the S (180 degrees) at 5 MPH (4 knots; 2.1 m/s)
Visibility: 6 or more miles (10+ km)
Ceiling: at least 12,000 feet AGL
Clouds: few clouds at 3000 feet AGL
Weather: no significant weather observed at this time

METAR text: RJCC 181530Z 18003KT 9999 FEW030 M09/M11 Q1024 RMK 1CU030 A3024
Conditions at: RJCC (CHITOSE (JASDF/C, JP) observed 1530 UTC 18 February 2019
Temperature: -9.0°C (16°F)
Dewpoint: -11.0°C (12°F) [RH = 85%]
Pressure (altimeter): 30.24 inches Hg (1024.0 mb)
Winds: from the S (180 degrees) at 3 MPH (3 knots; 1.5 m/s)
Visibility: 6 or more miles (10+ km)
Ceiling: at least 12,000 feet AGL
Clouds: few clouds at 3000 feet AGL
Weather: no significant weather observed at this time

METAR text: RJCC 181500Z 19003KT 9999 FEW030 M09/M12 Q1024 RMK 1CU030 A3025
Conditions at: RJCC (CHITOSE (JASDF/C, JP) observed 1500 UTC 18 February 2019
Temperature: -9.0°C (16°F)
Dewpoint: -12.0°C (10°F) [RH = 79%]
Pressure (altimeter): 30.24 inches Hg (1024.0 mb)
Winds: from the S (190 degrees) at 3 MPH (3 knots; 1.5 m/s)
Visibility: 6 or more miles (10+ km)
Ceiling: at least 12,000 feet AGL
Clouds: few clouds at 3000 feet AGL
Weather: no significant weather observed at this time

METAR text: RJCC 181430Z 16003KT 9999 FEW030 M08/M10 Q1024 RMK 1CU030 A3025
Conditions at: RJCC (CHITOSE (JASDF/C, JP) observed 1430 UTC 18 February 2019
Temperature: -8.0°C (18°F)
Dewpoint: -10.0°C (14°F) [RH = 85%]
Pressure (altimeter): 30.24 inches Hg (1024.0 mb)
Winds: from the SSE (160 degrees) at 3 MPH (3 knots; 1.5 m/s)
Visibility: 6 or more miles (10+ km)
Ceiling: at least 12,000 feet AGL
Clouds: few clouds at 3000 feet AGL
Weather: no significant weather observed at this time

METAR text: RJCC 181400Z 13003KT 9999 FEW030 M09/M11 Q1024 RMK 1CU030 A3025
Conditions at: RJCC (CHITOSE (JASDF/C, JP) observed 1400 UTC 18 February 2019
Temperature: -9.0°C (16°F)
Dewpoint: -11.0°C (12°F) [RH = 85%]
Pressure (altimeter): 30.24 inches Hg (1024.0 mb)
Winds: from the SE (130 degrees) at 3 MPH (3 knots; 1.5 m/s)
Visibility: 6 or more miles (10+ km)
Ceiling: at least 12,000 feet AGL
Clouds: few clouds at 3000 feet AGL
Weather: no significant weather observed at this time

METAR text: RJCC 181330Z 16003KT 9999 FEW030 M08/M11 Q1024 RMK 1CU030 A3025
Conditions at: RJCC (CHITOSE (JASDF/C, JP) observed 1330 UTC 18 February 2019
Temperature: -8.0°C (18°F)
Dewpoint: -11.0°C (12°F) [RH = 79%]
Pressure (altimeter): 30.24 inches Hg (1024.0 mb)
Winds: from the SSE (160 degrees) at 3 MPH (3 knots; 1.5 m/s)
Visibility: 6 or more miles (10+ km)
Ceiling: at least 12,000 feet AGL
Clouds: few clouds at 3000 feet AGL
Weather: no significant weather observed at this time

METAR text: RJCC 181300Z 16004KT 9999 FEW030 M07/M10 Q1024 RMK 1CU030 A3024
Conditions at: RJCC (CHITOSE (JASDF/C, JP) observed 1300 UTC 18 February 2019
Temperature: -7.0°C (19°F)
Dewpoint: -10.0°C (14°F) [RH = 79%]
Pressure (altimeter): 30.24 inches Hg (1024.0 mb)
Winds: from the SSE (160 degrees) at 5 MPH (4 knots; 2.1 m/s)
Visibility: 6 or more miles (10+ km)
Ceiling: at least 12,000 feet AGL
Clouds: few clouds at 3000 feet AGL
Weather: no significant weather observed at this time

METAR text: RJCC 181230Z 13003KT 100V170 9999 FEW030 M07/M10 Q1023 RMK 1CU030 A3023
Conditions at: RJCC (CHITOSE (JASDF/C, JP) observed 1230 UTC 18 February 2019
Temperature: -7.0°C (19°F)
Dewpoint: -10.0°C (14°F) [RH = 79%]
Pressure (altimeter): 30.21 inches Hg (1023.0 mb)
Winds: from the SE (130 degrees) at 3 MPH (3 knots; 1.5 m/s)
Visibility: 6 or more miles (10+ km)
Ceiling: at least 12,000 feet AGL
Clouds: few clouds at 3000 feet AGL
Weather: no significant weather observed at this time

METAR text: RJCC 181200Z 15003KT 9999 FEW030 M08/M11 Q1023 RMK 1CU030 A3023
Conditions at: RJCC (CHITOSE (JASDF/C, JP) observed 1200 UTC 18 February 2019
Temperature: -8.0°C (18°F)
Dewpoint: -11.0°C (12°F) [RH = 79%]
Pressure (altimeter): 30.21 inches Hg (1023.0 mb)
Winds: from the SSE (150 degrees) at 3 MPH (3 knots; 1.5 m/s)
Visibility: 6 or more miles (10+ km)
Ceiling: at least 12,000 feet AGL
Clouds: few clouds at 3000 feet AGL
Weather: no significant weather observed at this time

METAR text: RJCC 181130Z 13002KT 9999 FEW030 M06/M10 Q1023 RMK 1CU030 A3022
Conditions at: RJCC (CHITOSE (JASDF/C, JP) observed 1130 UTC 18 February 2019
Temperature: -6.0°C (21°F)
Dewpoint: -10.0°C (14°F) [RH = 73%]
Pressure (altimeter): 30.21 inches Hg (1023.0 mb)
Winds: from the SE (130 degrees) at 2 MPH (2 knots; 1.0 m/s)
Visibility: 6 or more miles (10+ km)
Ceiling: at least 12,000 feet AGL
Clouds: few clouds at 3000 feet AGL
Weather: no significant weather observed at this time

METAR text: RJCC 181100Z 16003KT 9999 FEW030 M05/M09 Q1023 RMK 1CU030 A3021
Conditions at: RJCC (CHITOSE (JASDF/C, JP) observed 1100 UTC 18 February 2019
Temperature: -5.0°C (23°F)
Dewpoint: -9.0°C (16°F) [RH = 73%]
Pressure (altimeter): 30.21 inches Hg (1023.0 mb)
Winds: from the SSE (160 degrees) at 3 MPH (3 knots; 1.5 m/s)
Visibility: 6 or more miles (10+ km)
Ceiling: at least 12,000 feet AGL
Clouds: few clouds at 3000 feet AGL
Weather: no significant weather observed at this time

METAR text: RJCC 181030Z VRB03KT 9999 FEW030 M02/M09 Q1022 RMK 1CU030 A3021
Conditions at: RJCC (CHITOSE (JASDF/C, JP) observed 1030 UTC 18 February 2019
Temperature: -2.0°C (28°F)
Dewpoint: -9.0°C (16°F) [RH = 59%]
Pressure (altimeter): 30.18 inches Hg (1022.0 mb)
Winds: variable direction winds at 3 MPH (3 knots; 1.5 m/s)
Visibility: 6 or more miles (10+ km)
Ceiling: at least 12,000 feet AGL
Clouds: few clouds at 3000 feet AGL
Weather: no significant weather observed at this time

METAR text: RJCC 181000Z 02003KT 360V140 9999 FEW030 M04/M09 Q1022 RMK 1CU030 A3020
Conditions at: RJCC (CHITOSE (JASDF/C, JP) observed 1000 UTC 18 February 2019
Temperature: -4.0°C (25°F)
Dewpoint: -9.0°C (16°F) [RH = 68%]
Pressure (altimeter): 30.18 inches Hg (1022.0 mb)
Winds: from the NNE (20 degrees) at 3 MPH (3 knots; 1.5 m/s)
Visibility: 6 or more miles (10+ km)
Ceiling: at least 12,000 feet AGL
Clouds: few clouds at 3000 feet AGL
Weather: no significant weather observed at this time

METAR text: RJCC 180930Z 02002KT 9999 FEW030 M02/M10 Q1022 RMK 1CU030 A3019
Conditions at: RJCC (CHITOSE (JASDF/C, JP) observed 0930 UTC 18 February 2019
Temperature: -2.0°C (28°F)
Dewpoint: -10.0°C (14°F) [RH = 54%]
Pressure (altimeter): 30.18 inches Hg (1022.0 mb)
Winds: from the NNE (20 degrees) at 2 MPH (2 knots; 1.0 m/s)
Visibility: 6 or more miles (10+ km)
Ceiling: at least 12,000 feet AGL
Clouds: few clouds at 3000 feet AGL
Weather: no significant weather observed at this time

METAR text: RJCC 180900Z 00000KT 9999 FEW030 M02/M10 Q1022 RMK 1CU030 A3018
Conditions at: RJCC (CHITOSE (JASDF/C, JP) observed 0900 UTC 18 February 2019
Temperature: -2.0°C (28°F)
Dewpoint: -10.0°C (14°F) [RH = 54%]
Pressure (altimeter): 30.18 inches Hg (1022.0 mb)
Winds: calm
Visibility: 6 or more miles (10+ km)
Ceiling: at least 12,000 feet AGL
Clouds: few clouds at 3000 feet AGL
Weather: no significant weather observed at this time

METAR text: RJCC 180830Z 01003KT 9999 FEW030 M01/M10 Q1021 RMK 1CU030 A3017
Conditions at: RJCC (CHITOSE (JASDF/C, JP) observed 0830 UTC 18 February 2019
Temperature: -1.0°C (30°F)
Dewpoint: -10.0°C (14°F) [RH = 50%]
Pressure (altimeter): 30.15 inches Hg (1021.0 mb)
Winds: from the N (10 degrees) at 3 MPH (3 knots; 1.5 m/s)
Visibility: 6 or more miles (10+ km)
Ceiling: at least 12,000 feet AGL
Clouds: few clouds at 3000 feet AGL
Weather: no significant weather observed at this time

METAR text: RJCC 180800Z 02006KT 9999 FEW030 M01/M09 Q1021 RMK 1CU030 A3016
Conditions at: RJCC (CHITOSE (JASDF/C, JP) observed 0800 UTC 18 February 2019
Temperature: -1.0°C (30°F)
Dewpoint: -9.0°C (16°F) [RH = 55%]
Pressure (altimeter): 30.15 inches Hg (1021.0 mb)
Winds: from the NNE (20 degrees) at 7 MPH (6 knots; 3.1 m/s)
Visibility: 6 or more miles (10+ km)
Ceiling: at least 12,000 feet AGL
Clouds: few clouds at 3000 feet AGL
Weather: no significant weather observed at this time

METAR text: RJCC 180730Z 36008KT 9999 FEW030 M00/M08 Q1021 RMK 1CU030 A3016
Conditions at: RJCC (CHITOSE (JASDF/C, JP) observed 0730 UTC 18 February 2019
Temperature: 0.0°C (32°F)
Dewpoint: -8.0°C (18°F) [RH = 55%]
Pressure (altimeter): 30.15 inches Hg (1021.0 mb)
Winds: from the N (360 degrees) at 9 MPH (8 knots; 4.1 m/s)
Visibility: 6 or more miles (10+ km)
Ceiling: at least 12,000 feet AGL
Clouds: few clouds at 3000 feet AGL
Weather: no significant weather observed at this time

METAR text: RJCC 180700Z 36011KT 9999 FEW030 00/M09 Q1021 RMK 1CU030 A3015
Conditions at: RJCC (CHITOSE (JASDF/C, JP) observed 0700 UTC 18 February 2019
Temperature: 0.0°C (32°F)
Dewpoint: -9.0°C (16°F) [RH = 51%]
Pressure (altimeter): 30.15 inches Hg (1021.0 mb)
Winds: from the N (360 degrees) at 13 MPH (11 knots; 5.7 m/s)
Visibility: 6 or more miles (10+ km)
Ceiling: at least 12,000 feet AGL
Clouds: few clouds at 3000 feet AGL
Weather: no significant weather observed at this time

METAR text: RJCC 180630Z 36011KT 9999 FEW030 01/M08 Q1020 RMK 1CU030 A3014
Conditions at: RJCC (CHITOSE (JASDF/C, JP) observed 0630 UTC 18 February 2019
Temperature: 1.0°C (34°F)
Dewpoint: -8.0°C (18°F) [RH = 51%]
Pressure (altimeter): 30.12 inches Hg (1020.0 mb)
Winds: from the N (360 degrees) at 13 MPH (11 knots; 5.7 m/s)
Visibility: 6 or more miles (10+ km)
Ceiling: at least 12,000 feet AGL
Clouds: few clouds at 3000 feet AGL
Weather: no significant weather observed at this time

METAR text: RJCC 180600Z 01012KT 9999 FEW030 SCT050 01/M08 Q1020 RMK 1CU030 3CU050 A3013
Conditions at: RJCC (CHITOSE (JASDF/C, JP) observed 0600 UTC 18 February 2019
Temperature: 1.0°C (34°F)
Dewpoint: -8.0°C (18°F) [RH = 51%]
Pressure (altimeter): 30.12 inches Hg (1020.0 mb)
Winds: from the N (10 degrees) at 14 MPH (12 knots; 6.2 m/s)
Visibility: 6 or more miles (10+ km)
Ceiling: at least 12,000 feet AGL
Clouds: few clouds at 3000 feet AGL
scattered clouds at 5000 feet AGL
Weather: no significant weather observed at this time

METAR text: RJCC 180530Z 36015KT 9999 FEW030 01/M08 Q1019 RMK 1CU030 A3010
Conditions at: RJCC (CHITOSE (JASDF/C, JP) observed 0530 UTC 18 February 2019
Temperature: 1.0°C (34°F)
Dewpoint: -8.0°C (18°F) [RH = 51%]
Pressure (altimeter): 30.09 inches Hg (1019.0 mb)
Winds: from the N (360 degrees) at 17 MPH (15 knots; 7.7 m/s)
Visibility: 6 or more miles (10+ km)
Ceiling: at least 12,000 feet AGL
Clouds: few clouds at 3000 feet AGL
Weather: no significant weather observed at this time

METAR text: RJCC 180500Z 36014KT 9999 FEW030 01/M07 Q1019 RMK 1CU030 A3009
Conditions at: RJCC (CHITOSE (JASDF/C, JP) observed 0500 UTC 18 February 2019
Temperature: 1.0°C (34°F)
Dewpoint: -7.0°C (19°F) [RH = 55%]
Pressure (altimeter): 30.09 inches Hg (1019.0 mb)
Winds: from the N (360 degrees) at 16 MPH (14 knots; 7.2 m/s)
Visibility: 6 or more miles (10+ km)
Ceiling: at least 12,000 feet AGL
Clouds: few clouds at 3000 feet AGL
Weather: no significant weather observed at this time

METAR text: RJCC 180430Z 35015KT 9999 FEW030 01/M07 Q1018 RMK 1CU030 A3008
Conditions at: RJCC (CHITOSE (JASDF/C, JP) observed 0430 UTC 18 February 2019
Temperature: 1.0°C (34°F)
Dewpoint: -7.0°C (19°F) [RH = 55%]
Pressure (altimeter): 30.06 inches Hg (1018.0 mb)
Winds: from the N (350 degrees) at 17 MPH (15 knots; 7.7 m/s)
Visibility: 6 or more miles (10+ km)
Ceiling: at least 12,000 feet AGL
Clouds: few clouds at 3000 feet AGL
Weather: no significant weather observed at this time

METAR text: RJCC 180400Z 36015KT 9999 FEW020 01/M08 Q1018 RMK 1CU020 A3008
Conditions at: RJCC (CHITOSE (JASDF/C, JP) observed 0400 UTC 18 February 2019
Temperature: 1.0°C (34°F)
Dewpoint: -8.0°C (18°F) [RH = 51%]
Pressure (altimeter): 30.06 inches Hg (1018.0 mb)
Winds: from the N (360 degrees) at 17 MPH (15 knots; 7.7 m/s)
Visibility: 6 or more miles (10+ km)
Ceiling: at least 12,000 feet AGL
Clouds: few clouds at 2000 feet AGL
Weather: no significant weather observed at this time

METAR text: RJCC 180330Z 36014KT 9999 FEW020 SCT050 01/M08 Q1018 RMK 1CU020 3CU050 A3006
Conditions at: RJCC (CHITOSE (JASDF/C, JP) observed 0330 UTC 18 February 2019
Temperature: 1.0°C (34°F)
Dewpoint: -8.0°C (18°F) [RH = 51%]
Pressure (altimeter): 30.06 inches Hg (1018.0 mb)
Winds: from the N (360 degrees) at 16 MPH (14 knots; 7.2 m/s)
Visibility: 6 or more miles (10+ km)
Ceiling: at least 12,000 feet AGL
Clouds: few clouds at 2000 feet AGL
scattered clouds at 5000 feet AGL
Weather: no significant weather observed at this time

METAR text: RJCC 180300Z 32016KT 9999 FEW020 SCT050 02/M10 Q1018 RMK 1CU020 3CU050 A3006
Conditions at: RJCC (CHITOSE (JASDF/C, JP) observed 0300 UTC 18 February 2019
Temperature: 2.0°C (36°F)
Dewpoint: -10.0°C (14°F) [RH = 41%]
Pressure (altimeter): 30.06 inches Hg (1018.0 mb)
Winds: from the NW (320 degrees) at 18 MPH (16 knots; 8.2 m/s)
Visibility: 6 or more miles (10+ km)
Ceiling: at least 12,000 feet AGL
Clouds: few clouds at 2000 feet AGL
scattered clouds at 5000 feet AGL
Weather: no significant weather observed at this time

METAR text: RJCC 180230Z 31018KT 9999 FEW020 SCT050 02/M11 Q1018 RMK 1CU020 3CU050 A3006
Conditions at: RJCC (CHITOSE (JASDF/C, JP) observed 0230 UTC 18 February 2019
Temperature: 2.0°C (36°F)
Dewpoint: -11.0°C (12°F) [RH = 37%]
Pressure (altimeter): 30.06 inches Hg (1018.0 mb)
Winds: from the NW (310 degrees) at 21 MPH (18 knots; 9.3 m/s)
Visibility: 6 or more miles (10+ km)
Ceiling: at least 12,000 feet AGL
Clouds: few clouds at 2000 feet AGL
scattered clouds at 5000 feet AGL
Weather: no significant weather observed at this time

METAR text: RJCC 180200Z 32015KT 9999 FEW020 02/M11 Q1017 RMK 1CU020 A3006
Conditions at: RJCC (CHITOSE (JASDF/C, JP) observed 0200 UTC 18 February 2019
Temperature: 2.0°C (36°F)
Dewpoint: -11.0°C (12°F) [RH = 37%]
Pressure (altimeter): 30.03 inches Hg (1017.0 mb)
Winds: from the NW (320 degrees) at 17 MPH (15 knots; 7.7 m/s)
Visibility: 6 or more miles (10+ km)
Ceiling: at least 12,000 feet AGL
Clouds: few clouds at 2000 feet AGL
Weather: no significant weather observed at this time

METAR text: RJCC 180130Z 32016KT 9999 FEW020 SCT060 02/M12 Q1018 RMK 1CU020 4CU060 A3006
Conditions at: RJCC (CHITOSE (JASDF/C, JP) observed 0130 UTC 18 February 2019
Temperature: 2.0°C (36°F)
Dewpoint: -12.0°C (10°F) [RH = 35%]
Pressure (altimeter): 30.06 inches Hg (1018.0 mb)
Winds: from the NW (320 degrees) at 18 MPH (16 knots; 8.2 m/s)
Visibility: 6 or more miles (10+ km)
Ceiling: at least 12,000 feet AGL
Clouds: few clouds at 2000 feet AGL
scattered clouds at 6000 feet AGL
Weather: no significant weather observed at this time

METAR text: RJCC 180100Z 30016KT 9999 FEW020 BKN060 01/M11 Q1017 RMK 1CU020 5CU060 A3006
Conditions at: RJCC (CHITOSE (JASDF/C, JP) observed 0100 UTC 18 February 2019
Temperature: 1.0°C (34°F)
Dewpoint: -11.0°C (12°F) [RH = 40%]
Pressure (altimeter): 30.03 inches Hg (1017.0 mb)
Winds: from the WNW (300 degrees) at 18 MPH (16 knots; 8.2 m/s)
Visibility: 6 or more miles (10+ km)
Ceiling: 6000 feet AGL
Clouds: few clouds at 2000 feet AGL
broken clouds at 6000 feet AGL
Weather: no significant weather observed at this time

METAR text: RJCC 180030Z 32009KT 9999 FEW020 SCT060 01/M10 Q1017 RMK 1CU020 3CU060 A3005
Conditions at: RJCC (CHITOSE (JASDF/C, JP) observed 0030 UTC 18 February 2019
Temperature: 1.0°C (34°F)
Dewpoint: -10.0°C (14°F) [RH = 44%]
Pressure (altimeter): 30.03 inches Hg (1017.0 mb)
Winds: from the NW (320 degrees) at 10 MPH (9 knots; 4.6 m/s)
Visibility: 6 or more miles (10+ km)
Ceiling: at least 12,000 feet AGL
Clouds: few clouds at 2000 feet AGL
scattered clouds at 6000 feet AGL
Weather: no significant weather observed at this time

METAR text: RJCC 180000Z 32009KT 9999 FEW020 01/M10 Q1017 RMK 1CU020 A3003
Conditions at: RJCC (CHITOSE (JASDF/C, JP) observed 0000 UTC 18 February 2019
Temperature: 1.0°C (34°F)
Dewpoint: -10.0°C (14°F) [RH = 44%]
Pressure (altimeter): 30.03 inches Hg (1017.0 mb)
Winds: from the NW (320 degrees) at 10 MPH (9 knots; 4.6 m/s)
Visibility: 6 or more miles (10+ km)
Ceiling: at least 12,000 feet AGL
Clouds: few clouds at 2000 feet AGL
Weather: no significant weather observed at this time

METAR text: RJCC 172330Z 34012KT 9999 FEW015 M01/M09 Q1016 RMK 1ST015 A3001
Conditions at: RJCC (CHITOSE (JASDF/C, JP) observed 2330 UTC 17 February 2019
Temperature: -1.0°C (30°F)
Dewpoint: -9.0°C (16°F) [RH = 55%]
Pressure (altimeter): 30.00 inches Hg (1016.0 mb)
Winds: from the NNW (340 degrees) at 14 MPH (12 knots; 6.2 m/s)
Visibility: 6 or more miles (10+ km)
Ceiling: at least 12,000 feet AGL
Clouds: few clouds at 1500 feet AGL
Weather: no significant weather observed at this time

METAR text: RJCC 172300Z 31005KT 280V350 9999 FEW015 SCT050 M03/M08 Q1016 RMK 1ST015 3CU050 A3000
Conditions at: RJCC (CHITOSE (JASDF/C, JP) observed 2300 UTC 17 February 2019
Temperature: -3.0°C (27°F)
Dewpoint: -8.0°C (18°F) [RH = 68%]
Pressure (altimeter): 30.00 inches Hg (1016.0 mb)
Winds: from the NW (310 degrees) at 6 MPH (5 knots; 2.6 m/s)
Visibility: 6 or more miles (10+ km)
Ceiling: at least 12,000 feet AGL
Clouds: few clouds at 1500 feet AGL
scattered clouds at 5000 feet AGL
Weather: no significant weather observed at this time

METAR text: RJCC 172230Z VRB01KT 9999 -SHSN FEW015 SCT050 M02/M05 Q1015 RMK 1ST015 3CU050 A2998
Conditions at: RJCC (CHITOSE (JASDF/C, JP) observed 2230 UTC 17 February 2019
Temperature: -2.0°C (28°F)
Dewpoint: -5.0°C (23°F) [RH = 80%]
Pressure (altimeter): 29.97 inches Hg (1015.0 mb)
Winds: variable direction winds at 1 MPH (1 knots; 0.5 m/s)
Visibility: 6 or more miles (10+ km)
Ceiling: at least 12,000 feet AGL
Clouds: few clouds at 1500 feet AGL
scattered clouds at 5000 feet AGL
Weather: -SHSN  (light snow showers)

METAR text: RJCC 172200Z 15002KT 9999 FEW015 M04/M07 Q1014 RMK 1ST015 A2996
Conditions at: RJCC (CHITOSE (JASDF/C, JP) observed 2200 UTC 17 February 2019
Temperature: -4.0°C (25°F)
Dewpoint: -7.0°C (19°F) [RH = 80%]
Pressure (altimeter): 29.94 inches Hg (1014.0 mb)
Winds: from the SSE (150 degrees) at 2 MPH (2 knots; 1.0 m/s)
Visibility: 6 or more miles (10+ km)
Ceiling: at least 12,000 feet AGL
Clouds: few clouds at 1500 feet AGL
Weather: no significant weather observed at this time

METAR text: RJCC 172130Z VRB02KT 9999 FEW015 M03/M05 Q1013 RMK 1ST015 A2993
Conditions at: RJCC (CHITOSE (JASDF/C, JP) observed 2130 UTC 17 February 2019
Temperature: -3.0°C (27°F)
Dewpoint: -5.0°C (23°F) [RH = 86%]
Pressure (altimeter): 29.91 inches Hg (1013.0 mb)
Winds: variable direction winds at 2 MPH (2 knots; 1.0 m/s)
Visibility: 6 or more miles (10+ km)
Ceiling: at least 12,000 feet AGL
Clouds: few clouds at 1500 feet AGL
Weather: no significant weather observed at this time

METAR text: RJCC 172100Z 35008KT 8000 -SHSN FEW010 SCT040 M03/M05 Q1013 RMK 1ST010 4CU040 A2992
Conditions at: RJCC (CHITOSE (JASDF/C, JP) observed 2100 UTC 17 February 2019
Temperature: -3.0°C (27°F)
Dewpoint: -5.0°C (23°F) [RH = 86%]
Pressure (altimeter): 29.91 inches Hg (1013.0 mb)
Winds: from the N (350 degrees) at 9 MPH (8 knots; 4.1 m/s)
Visibility: 5 miles ( 8 km)
Ceiling: at least 12,000 feet AGL
Clouds: few clouds at 1000 feet AGL
scattered clouds at 4000 feet AGL
Weather: -SHSN  (light snow showers)

METAR text: RJCC 172030Z 33015KT 6000 -SHSN FEW010 SCT020 BKN040 M02/M06 Q1012 RMK 1ST010 3CU020 6CU040 A2991
Conditions at: RJCC (CHITOSE (JASDF/C, JP) observed 2030 UTC 17 February 2019
Temperature: -2.0°C (28°F)
Dewpoint: -6.0°C (21°F) [RH = 74%]
Pressure (altimeter): 29.88 inches Hg (1012.0 mb)
Winds: from the NNW (330 degrees) at 17 MPH (15 knots; 7.7 m/s)
Visibility: 4 miles ( 6 km)
Ceiling: 4000 feet AGL
Clouds: few clouds at 1000 feet AGL
scattered clouds at 2000 feet AGL
broken clouds at 4000 feet AGL
Weather: -SHSN  (light snow showers)

METAR text: RJCC 172019Z 32021KT 9999 -SHSN FEW015 BKN050 M01/M09 Q1012 RMK 1ST015 6CU050 A2990
Conditions at: RJCC (CHITOSE (JASDF/C, JP) observed 2019 UTC 17 February 2019
Temperature: -1.0°C (30°F)
Dewpoint: -9.0°C (16°F) [RH = 55%]
Pressure (altimeter): 29.88 inches Hg (1012.0 mb)
Winds: from the NW (320 degrees) at 24 MPH (21 knots; 10.8 m/s)
Visibility: 6 or more miles (10+ km)
Ceiling: 5000 feet AGL
Clouds: few clouds at 1500 feet AGL
broken clouds at 5000 feet AGL
Weather: -SHSN  (light snow showers)

METAR text: RJCC 172000Z 33009KT 9999 FEW015 SCT050 M02/M09 Q1011 RMK 1ST015 3CU050 A2988
Conditions at: RJCC (CHITOSE (JASDF/C, JP) observed 2000 UTC 17 February 2019
Temperature: -2.0°C (28°F)
Dewpoint: -9.0°C (16°F) [RH = 59%]
Pressure (altimeter): 29.85 inches Hg (1011.0 mb)
Winds: from the NNW (330 degrees) at 10 MPH (9 knots; 4.6 m/s)
Visibility: 6 or more miles (10+ km)
Ceiling: at least 12,000 feet AGL
Clouds: few clouds at 1500 feet AGL
scattered clouds at 5000 feet AGL
Weather: no significant weather observed at this time

METAR text: RJCC 171930Z 31007KT 250V340 9999 -SHSN FEW015 SCT035 BKN050 M00/M07 Q1011 RMK 1ST015 3CU035 5CU050 A2986
Conditions at: RJCC (CHITOSE (JASDF/C, JP) observed 1930 UTC 17 February 2019
Temperature: 0.0°C (32°F)
Dewpoint: -7.0°C (19°F) [RH = 59%]
Pressure (altimeter): 29.85 inches Hg (1011.0 mb)
Winds: from the NW (310 degrees) at 8 MPH (7 knots; 3.6 m/s)
Visibility: 6 or more miles (10+ km)
Ceiling: 5000 feet AGL
Clouds: few clouds at 1500 feet AGL
scattered clouds at 3500 feet AGL
broken clouds at 5000 feet AGL
Weather: -SHSN  (light snow showers)

METAR text: RJCC 171900Z 32014KT 9999 -SHSN FEW010 SCT025 BKN040 M00/M06 Q1010 RMK 1ST010 3CU025 6CU040 A2984
Conditions at: RJCC (CHITOSE (JASDF/C, JP) observed 1900 UTC 17 February 2019
Temperature: 0.0°C (32°F)
Dewpoint: -6.0°C (21°F) [RH = 64%]
Pressure (altimeter): 29.82 inches Hg (1010.0 mb)
Winds: from the NW (320 degrees) at 16 MPH (14 knots; 7.2 m/s)
Visibility: 6 or more miles (10+ km)
Ceiling: 4000 feet AGL
Clouds: few clouds at 1000 feet AGL
scattered clouds at 2500 feet AGL
broken clouds at 4000 feet AGL
Weather: -SHSN  (light snow showers)

METAR text: RJCC 171830Z VRB02KT 8000 -SHSN FEW010 SCT020 BKN035 M01/M03 Q1010 RMK 1ST010 3CU020 6CU035 A2983
Conditions at: RJCC (CHITOSE (JASDF/C, JP) observed 1830 UTC 17 February 2019
Temperature: -1.0°C (30°F)
Dewpoint: -3.0°C (27°F) [RH = 86%]
Pressure (altimeter): 29.82 inches Hg (1010.0 mb)
Winds: variable direction winds at 2 MPH (2 knots; 1.0 m/s)
Visibility: 5 miles ( 8 km)
Ceiling: 3500 feet AGL
Clouds: few clouds at 1000 feet AGL
scattered clouds at 2000 feet AGL
broken clouds at 3500 feet AGL
Weather: -SHSN  (light snow showers)

METAR text: RJCC 171800Z 07004KT 030V100 4000 -SHSN FEW008 SCT020 BKN035 M01/M03 Q1010 RMK 1ST008 3CU020 6CU035 A2982
Conditions at: RJCC (CHITOSE (JASDF/C, JP) observed 1800 UTC 17 February 2019
Temperature: -1.0°C (30°F)
Dewpoint: -3.0°C (27°F) [RH = 86%]
Pressure (altimeter): 29.82 inches Hg (1010.0 mb)
Winds: from the ENE (70 degrees) at 5 MPH (4 knots; 2.1 m/s)
Visibility: 2.49 miles (4.01 km)
Ceiling: 3500 feet AGL
Clouds: few clouds at 800 feet AGL
scattered clouds at 2000 feet AGL
broken clouds at 3500 feet AGL
Weather: -SHSN  (light snow showers)

METAR text: RJCC 171730Z 02006KT 4000 -SHSN FEW010 SCT025 BKN040 M01/M04 Q1009 RMK 1ST010 3CU025 6CU040 A2981
Conditions at: RJCC (CHITOSE (JASDF/C, JP) observed 1730 UTC 17 February 2019
Temperature: -1.0°C (30°F)
Dewpoint: -4.0°C (25°F) [RH = 80%]
Pressure (altimeter): 29.79 inches Hg (1009.0 mb)
Winds: from the NNE (20 degrees) at 7 MPH (6 knots; 3.1 m/s)
Visibility: 2.49 miles (4.01 km)
Ceiling: 4000 feet AGL
Clouds: few clouds at 1000 feet AGL
scattered clouds at 2500 feet AGL
broken clouds at 4000 feet AGL
Weather: -SHSN  (light snow showers)

METAR text: RJCC 171700Z 22009KT 9999 -SHSN FEW015 SCT040 BKN050 00/M06 Q1009 RMK 1ST015 3CU040 7CU050 A2980
Conditions at: RJCC (CHITOSE (JASDF/C, JP) observed 1700 UTC 17 February 2019
Temperature: 0.0°C (32°F)
Dewpoint: -6.0°C (21°F) [RH = 64%]
Pressure (altimeter): 29.79 inches Hg (1009.0 mb)
Winds: from the SW (220 degrees) at 10 MPH (9 knots; 4.6 m/s)
Visibility: 6 or more miles (10+ km)
Ceiling: 5000 feet AGL
Clouds: few clouds at 1500 feet AGL
scattered clouds at 4000 feet AGL
broken clouds at 5000 feet AGL
Weather: -SHSN  (light snow showers)

METAR text: RJCC 171630Z 22010KT 9999 -SHSN FEW015 SCT040 BKN050 00/M07 Q1009 RMK 1ST015 3CU040 7CU050 A2980
Conditions at: RJCC (CHITOSE (JASDF/C, JP) observed 1630 UTC 17 February 2019
Temperature: 0.0°C (32°F)
Dewpoint: -7.0°C (19°F) [RH = 59%]
Pressure (altimeter): 29.79 inches Hg (1009.0 mb)
Winds: from the SW (220 degrees) at 12 MPH (10 knots; 5.1 m/s)
Visibility: 6 or more miles (10+ km)
Ceiling: 5000 feet AGL
Clouds: few clouds at 1500 feet AGL
scattered clouds at 4000 feet AGL
broken clouds at 5000 feet AGL
Weather: -SHSN  (light snow showers)

METAR text: RJCC 171600Z 19007KT 160V230 9999 -SHSN FEW015 BKN050 00/M08 Q1009 RMK 1ST015 7CU050 A2980
Conditions at: RJCC (CHITOSE (JASDF/C, JP) observed 1600 UTC 17 February 2019
Temperature: 0.0°C (32°F)
Dewpoint: -8.0°C (18°F) [RH = 55%]
Pressure (altimeter): 29.79 inches Hg (1009.0 mb)
Winds: from the S (190 degrees) at 8 MPH (7 knots; 3.6 m/s)
Visibility: 6 or more miles (10+ km)
Ceiling: 5000 feet AGL
Clouds: few clouds at 1500 feet AGL
broken clouds at 5000 feet AGL
Weather: -SHSN  (light snow showers)

METAR text: RJCC 171530Z 18007KT 150V210 9999 -SHSN FEW015 BKN050 M01/M07 Q1009 RMK 1ST015 7CU050 A2980
Conditions at: RJCC (CHITOSE (JASDF/C, JP) observed 1530 UTC 17 February 2019
Temperature: -1.0°C (30°F)
Dewpoint: -7.0°C (19°F) [RH = 64%]
Pressure (altimeter): 29.79 inches Hg (1009.0 mb)
Winds: from the S (180 degrees) at 8 MPH (7 knots; 3.6 m/s)
Visibility: 6 or more miles (10+ km)
Ceiling: 5000 feet AGL
Clouds: few clouds at 1500 feet AGL
broken clouds at 5000 feet AGL
Weather: -SHSN  (light snow showers)

Forecast for: RJCC (CHITOSE (JASDF/C, JP)
Text: TAF RJCC 182305Z 1900/2006 17014KT 9999 FEW020 SCT050
Forecast period: 0000 to 1200 UTC 19 February 2019
Forecast type: FROM: standard forecast or significant change
Winds: from the S (170 degrees) at 16 MPH (14 knots; 7.2 m/s)
Visibility: 6 or more miles 10+ km)
Ceiling: at least 12,000 feet AGL
Clouds: few clouds at 2000 feet AGL
scattered clouds at 5000 feet AGL
Weather: no significant weather forecast for this period
Text: BECMG 1912/1915 34010KT
Forecast period: 1200 UTC 19 February 2019 to 0600 UTC 20 February 2019
Forecast type: BECOMING: Conditions expected to become as follows by 1500 UTC 19 February 2019
Winds: from the NNW (340 degrees) at 12 MPH (10 knots; 5.1 m/s)
Visibility: 6 or more miles 10+ km)
Ceiling: at least 12,000 feet AGL
Clouds: few clouds at 2000 feet AGL
scattered clouds at 5000 feet AGL
Weather: no significant weather forecast for this period
Text: TEMPO 1915/1921 2000 -SHSN FEW005 BKN008
Forecast period: 1500 to 2100 UTC 19 February 2019
Forecast type: TEMPORARY: The following changes expected for less than half the time period
Visibility: 1.24 miles (2.00 km)
Ceiling: 800 feet AGL
Clouds: few clouds at 500 feet AGL
broken clouds at 800 feet AGL
Weather: -SHSN  (light snow showers)